sensor_id;sensor_type;location;lat;lon;timestamp;temperature;humidity
66576;SHT31;53428;47.686;16.584;2022-08-03T00:03:44;18.47;84.05
66576;SHT31;53428;47.686;16.584;2022-08-03T00:08:44;18.53;83.75
66576;SHT31;53428;47.686;16.584;2022-08-03T00:13:43;18.70;82.99
66576;SHT31;53428;47.686;16.584;2022-08-03T00:18:43;18.67;83.00
66576;SHT31;53428;47.686;16.584;2022-08-03T00:23:42;18.50;83.62
66576;SHT31;53428;47.686;16.584;2022-08-03T00:28:42;18.39;83.85
66576;SHT31;53428;47.686;16.584;2022-08-03T00:33:41;18.26;84.38
66576;SHT31;53428;47.686;16.584;2022-08-03T00:38:41;18.25;84.39
66576;SHT31;53428;47.686;16.584;2022-08-03T00:43:40;18.15;84.56
66576;SHT31;53428;47.686;16.584;2022-08-03T00:48:40;18.15;84.68
66576;SHT31;53428;47.686;16.584;2022-08-03T00:53:39;18.08;84.91
66576;SHT31;53428;47.686;16.584;2022-08-03T00:58:39;18.12;84.91
66576;SHT31;53428;47.686;16.584;2022-08-03T01:03:39;18.01;84.97
66576;SHT31;53428;47.686;16.584;2022-08-03T01:14:37;17.73;85.93
66576;SHT31;53428;47.686;16.584;2022-08-03T01:19:59;17.84;85.54
66576;SHT31;53428;47.686;16.584;2022-08-03T01:25:21;17.78;85.81
66576;SHT31;53428;47.686;16.584;2022-08-03T01:30:23;17.85;85.54
66576;SHT31;53428;47.686;16.584;2022-08-03T01:35:31;17.88;85.26
66576;SHT31;53428;47.686;16.584;2022-08-03T01:40:33;17.84;85.35
66576;SHT31;53428;47.686;16.584;2022-08-03T01:45:35;17.91;85.20
66576;SHT31;53428;47.686;16.584;2022-08-03T01:50:36;17.84;85.19
66576;SHT31;53428;47.686;16.584;2022-08-03T01:55:37;17.89;85.42
66576;SHT31;53428;47.686;16.584;2022-08-03T02:00:37;17.82;85.72
66576;SHT31;53428;47.686;16.584;2022-08-03T02:05:44;17.67;86.27
66576;SHT31;53428;47.686;16.584;2022-08-03T02:10:45;17.55;86.67
66576;SHT31;53428;47.686;16.584;2022-08-03T02:15:46;17.37;87.33
66576;SHT31;53428;47.686;16.584;2022-08-03T02:20:47;17.46;87.06
66576;SHT31;53428;47.686;16.584;2022-08-03T02:26:02;17.33;87.30
66576;SHT31;53428;47.686;16.584;2022-08-03T02:31:06;17.26;87.46
66576;SHT31;53428;47.686;16.584;2022-08-03T02:36:10;17.12;88.00
66576;SHT31;53428;47.686;16.584;2022-08-03T02:41:15;17.19;87.70
66576;SHT31;53428;47.686;16.584;2022-08-03T02:46:19;17.16;87.66
66576;SHT31;53428;47.686;16.584;2022-08-03T02:51:22;17.30;87.28
66576;SHT31;53428;47.686;16.584;2022-08-03T02:56:24;17.27;87.32
66576;SHT31;53428;47.686;16.584;2022-08-03T03:01:26;17.33;87.20
66576;SHT31;53428;47.686;16.584;2022-08-03T03:06:27;17.32;87.30
66576;SHT31;53428;47.686;16.584;2022-08-03T03:11:27;17.16;87.91
66576;SHT31;53428;47.686;16.584;2022-08-03T03:16:28;17.16;87.81
66576;SHT31;53428;47.686;16.584;2022-08-03T03:21:29;17.01;88.33
66576;SHT31;53428;47.686;16.584;2022-08-03T03:26:29;16.93;88.37
66576;SHT31;53428;47.686;16.584;2022-08-03T03:31:29;16.96;87.93
66576;SHT31;53428;47.686;16.584;2022-08-03T03:36:28;16.76;88.63
66576;SHT31;53428;47.686;16.584;2022-08-03T03:41:28;16.76;88.67
66576;SHT31;53428;47.686;16.584;2022-08-03T03:46:28;16.75;88.67
66576;SHT31;53428;47.686;16.584;2022-08-03T03:51:27;16.78;88.54
66576;SHT31;53428;47.686;16.584;2022-08-03T03:56:27;16.81;88.39
66576;SHT31;53428;47.686;16.584;2022-08-03T04:01:27;16.85;88.30
66576;SHT31;53428;47.686;16.584;2022-08-03T04:06:27;16.96;87.84
66576;SHT31;53428;47.686;16.584;2022-08-03T04:11:49;17.15;87.32
66576;SHT31;53428;47.686;16.584;2022-08-03T04:17:00;17.12;87.22
66576;SHT31;53428;47.686;16.584;2022-08-03T04:22:08;17.23;86.72
66576;SHT31;53428;47.686;16.584;2022-08-03T04:27:10;17.34;86.56
66576;SHT31;53428;47.686;16.584;2022-08-03T04:32:11;17.40;86.10
66576;SHT31;53428;47.686;16.584;2022-08-03T04:37:18;17.54;85.87
66576;SHT31;53428;47.686;16.584;2022-08-03T04:42:21;17.88;84.80
66576;SHT31;53428;47.686;16.584;2022-08-03T04:47:21;18.06;83.96
66576;SHT31;53428;47.686;16.584;2022-08-03T04:52:21;18.24;83.47
66576;SHT31;53428;47.686;16.584;2022-08-03T04:57:20;18.35;83.30
66576;SHT31;53428;47.686;16.584;2022-08-03T05:02:20;18.46;83.02
66576;SHT31;53428;47.686;16.584;2022-08-03T05:07:19;18.67;82.48
66576;SHT31;53428;47.686;16.584;2022-08-03T05:12:19;18.78;82.02
66576;SHT31;53428;47.686;16.584;2022-08-03T05:17:18;18.93;81.39
66576;SHT31;53428;47.686;16.584;2022-08-03T05:22:17;19.07;81.07
66576;SHT31;53428;47.686;16.584;2022-08-03T05:27:17;19.32;80.53
66576;SHT31;53428;47.686;16.584;2022-08-03T05:32:19;19.51;80.07
66576;SHT31;53428;47.686;16.584;2022-08-03T05:37:18;19.73;79.69
66576;SHT31;53428;47.686;16.584;2022-08-03T05:42:18;19.89;79.42
66576;SHT31;53428;47.686;16.584;2022-08-03T05:47:17;20.27;78.74
66576;SHT31;53428;47.686;16.584;2022-08-03T05:52:16;20.49;78.04
66576;SHT31;53428;47.686;16.584;2022-08-03T05:57:16;20.73;76.81
66576;SHT31;53428;47.686;16.584;2022-08-03T06:02:15;21.02;76.03
66576;SHT31;53428;47.686;16.584;2022-08-03T06:07:14;21.30;75.45
66576;SHT31;53428;47.686;16.584;2022-08-03T06:12:14;21.59;72.80
66576;SHT31;53428;47.686;16.584;2022-08-03T06:17:13;21.92;72.73
66576;SHT31;53428;47.686;16.584;2022-08-03T06:22:12;22.06;71.33
66576;SHT31;53428;47.686;16.584;2022-08-03T06:27:12;22.27;70.45
66576;SHT31;53428;47.686;16.584;2022-08-03T06:32:11;22.51;67.66
66576;SHT31;53428;47.686;16.584;2022-08-03T06:37:10;22.75;66.65
66576;SHT31;53428;47.686;16.584;2022-08-03T06:42:10;23.19;64.41
66576;SHT31;53428;47.686;16.584;2022-08-03T06:47:09;23.30;62.13
66576;SHT31;53428;47.686;16.584;2022-08-03T06:52:09;23.45;61.69
66576;SHT31;53428;47.686;16.584;2022-08-03T06:57:08;23.77;61.28
66576;SHT31;53428;47.686;16.584;2022-08-03T07:02:09;23.78;61.27
66576;SHT31;53428;47.686;16.584;2022-08-03T07:07:09;23.85;61.24
66576;SHT31;53428;47.686;16.584;2022-08-03T07:12:08;24.00;61.27
66576;SHT31;53428;47.686;16.584;2022-08-03T07:17:08;24.15;60.83
66576;SHT31;53428;47.686;16.584;2022-08-03T07:22:07;24.28;60.77
66576;SHT31;53428;47.686;16.584;2022-08-03T07:27:08;24.33;60.86
66576;SHT31;53428;47.686;16.584;2022-08-03T07:32:07;24.49;59.99
66576;SHT31;53428;47.686;16.584;2022-08-03T07:37:07;24.65;59.30
66576;SHT31;53428;47.686;16.584;2022-08-03T07:42:06;24.72;59.34
66576;SHT31;53428;47.686;16.584;2022-08-03T07:47:06;25.02;58.16
66576;SHT31;53428;47.686;16.584;2022-08-03T07:52:05;25.14;57.94
66576;SHT31;53428;47.686;16.584;2022-08-03T07:57:23;25.37;57.13
66576;SHT31;53428;47.686;16.584;2022-08-03T08:02:22;25.58;54.64
66576;SHT31;53428;47.686;16.584;2022-08-03T08:07:22;25.78;55.96
66576;SHT31;53428;47.686;16.584;2022-08-03T08:12:21;26.09;52.75
66576;SHT31;53428;47.686;16.584;2022-08-03T08:17:21;26.40;50.46
66576;SHT31;53428;47.686;16.584;2022-08-03T08:22:21;26.48;49.40
66576;SHT31;53428;47.686;16.584;2022-08-03T08:27:20;26.75;50.03
66576;SHT31;53428;47.686;16.584;2022-08-03T08:32:20;27.03;49.39
66576;SHT31;53428;47.686;16.584;2022-08-03T08:37:19;27.23;49.08
66576;SHT31;53428;47.686;16.584;2022-08-03T08:42:18;27.13;48.65
66576;SHT31;53428;47.686;16.584;2022-08-03T08:47:18;27.36;47.43
66576;SHT31;53428;47.686;16.584;2022-08-03T08:52:25;27.49;48.12
66576;SHT31;53428;47.686;16.584;2022-08-03T08:57:29;27.91;48.86
66576;SHT31;53428;47.686;16.584;2022-08-03T09:02:29;28.02;48.36
66576;SHT31;53428;47.686;16.584;2022-08-03T09:07:29;28.31;48.52
66576;SHT31;53428;47.686;16.584;2022-08-03T09:12:28;28.13;47.94
66576;SHT31;53428;47.686;16.584;2022-08-03T09:17:39;28.25;47.75
66576;SHT31;53428;47.686;16.584;2022-08-03T09:23:03;28.91;46.76
66576;SHT31;53428;47.686;16.584;2022-08-03T09:28:15;28.73;47.00
66576;SHT31;53428;47.686;16.584;2022-08-03T09:33:15;28.84;45.45
66576;SHT31;53428;47.686;16.584;2022-08-03T09:38:17;28.88;45.78
66576;SHT31;53428;47.686;16.584;2022-08-03T09:43:16;29.39;45.28
66576;SHT31;53428;47.686;16.584;2022-08-03T09:48:24;29.66;42.98
66576;SHT31;53428;47.686;16.584;2022-08-03T09:53:25;29.70;44.18
66576;SHT31;53428;47.686;16.584;2022-08-03T09:58:26;29.51;43.04
66576;SHT31;53428;47.686;16.584;2022-08-03T10:03:28;29.29;44.11
66576;SHT31;53428;47.686;16.584;2022-08-03T10:08:31;29.89;41.34
66576;SHT31;53428;47.686;16.584;2022-08-03T10:13:31;30.14;41.44
66576;SHT31;53428;47.686;16.584;2022-08-03T10:18:31;30.13;41.03
66576;SHT31;53428;47.686;16.584;2022-08-03T10:23:34;30.54;40.09
66576;SHT31;53428;47.686;16.584;2022-08-03T10:28:40;30.37;41.25
66576;SHT31;53428;47.686;16.584;2022-08-03T10:33:48;30.75;39.26
66576;SHT31;53428;47.686;16.584;2022-08-03T10:38:50;30.45;39.73
66576;SHT31;53428;47.686;16.584;2022-08-03T10:43:58;30.31;38.99
66576;SHT31;53428;47.686;16.584;2022-08-03T10:49:00;30.72;36.57
66576;SHT31;53428;47.686;16.584;2022-08-03T10:54:00;31.51;37.57
66576;SHT31;53428;47.686;16.584;2022-08-03T10:59:00;32.78;35.07
66576;SHT31;53428;47.686;16.584;2022-08-03T11:09:17;32.50;34.74
66576;SHT31;53428;47.686;16.584;2022-08-03T11:14:19;34.40;31.46
66576;SHT31;53428;47.686;16.584;2022-08-03T11:19:19;33.45;32.22
66576;SHT31;53428;47.686;16.584;2022-08-03T11:29:35;34.04;29.82
66576;SHT31;53428;47.686;16.584;2022-08-03T11:35:07;34.01;29.71
66576;SHT31;53428;47.686;16.584;2022-08-03T11:45:33;35.10;28.60
66576;SHT31;53428;47.686;16.584;2022-08-03T11:50:35;34.25;29.00
66576;SHT31;53428;47.686;16.584;2022-08-03T11:55:36;35.46;28.12
66576;SHT31;53428;47.686;16.584;2022-08-03T12:00:36;35.49;29.90
66576;SHT31;53428;47.686;16.584;2022-08-03T12:05:45;34.36;30.28
66576;SHT31;53428;47.686;16.584;2022-08-03T12:10:48;36.01;28.47
66576;SHT31;53428;47.686;16.584;2022-08-03T12:15:55;36.67;28.13
66576;SHT31;53428;47.686;16.584;2022-08-03T12:21:04;36.15;28.28
66576;SHT31;53428;47.686;16.584;2022-08-03T12:26:06;36.21;28.22
66576;SHT31;53428;47.686;16.584;2022-08-03T12:31:07;35.03;29.20
66576;SHT31;53428;47.686;16.584;2022-08-03T12:36:09;35.60;29.46
66576;SHT31;53428;47.686;16.584;2022-08-03T12:41:10;37.10;27.04
66576;SHT31;53428;47.686;16.584;2022-08-03T12:46:17;35.78;28.08
66576;SHT31;53428;47.686;16.584;2022-08-03T12:51:17;36.46;27.06
66576;SHT31;53428;47.686;16.584;2022-08-03T12:56:16;36.56;27.05
66576;SHT31;53428;47.686;16.584;2022-08-03T13:01:18;34.52;29.02
66576;SHT31;53428;47.686;16.584;2022-08-03T13:06:22;36.53;27.65
66576;SHT31;53428;47.686;16.584;2022-08-03T13:11:26;35.29;28.77
66576;SHT31;53428;47.686;16.584;2022-08-03T13:16:26;37.11;26.39
66576;SHT31;53428;47.686;16.584;2022-08-03T13:21:25;39.16;24.94
66576;SHT31;53428;47.686;16.584;2022-08-03T13:26:24;38.37;26.30
66576;SHT31;53428;47.686;16.584;2022-08-03T13:31:24;38.64;25.94
66576;SHT31;53428;47.686;16.584;2022-08-03T13:36:27;37.38;26.78
66576;SHT31;53428;47.686;16.584;2022-08-03T13:41:27;38.13;26.08
66576;SHT31;53428;47.686;16.584;2022-08-03T13:46:26;38.53;26.02
66576;SHT31;53428;47.686;16.584;2022-08-03T13:51:26;40.08;24.76
66576;SHT31;53428;47.686;16.584;2022-08-03T13:56:25;35.50;28.53
66576;SHT31;53428;47.686;16.584;2022-08-03T14:01:25;38.16;25.78
66576;SHT31;53428;47.686;16.584;2022-08-03T14:06:24;36.70;27.39
66576;SHT31;53428;47.686;16.584;2022-08-03T14:11:24;38.55;25.67
66576;SHT31;53428;47.686;16.584;2022-08-03T14:16:23;37.57;26.12
66576;SHT31;53428;47.686;16.584;2022-08-03T14:21:23;36.49;27.16
66576;SHT31;53428;47.686;16.584;2022-08-03T14:26:22;39.51;23.84
66576;SHT31;53428;47.686;16.584;2022-08-03T14:31:22;37.92;25.28
66576;SHT31;53428;47.686;16.584;2022-08-03T14:36:21;37.25;25.47
66576;SHT31;53428;47.686;16.584;2022-08-03T14:41:21;35.99;26.62
66576;SHT31;53428;47.686;16.584;2022-08-03T14:46:20;36.25;26.47
66576;SHT31;53428;47.686;16.584;2022-08-03T14:51:20;39.39;23.98
66576;SHT31;53428;47.686;16.584;2022-08-03T14:56:19;37.73;25.19
66576;SHT31;53428;47.686;16.584;2022-08-03T15:01:19;37.73;24.24
66576;SHT31;53428;47.686;16.584;2022-08-03T15:06:18;37.72;24.45
66576;SHT31;53428;47.686;16.584;2022-08-03T15:11:18;36.80;25.13
66576;SHT31;53428;47.686;16.584;2022-08-03T15:16:17;38.37;23.55
66576;SHT31;53428;47.686;16.584;2022-08-03T15:21:17;37.86;23.75
66576;SHT31;53428;47.686;16.584;2022-08-03T15:26:16;36.97;23.78
66576;SHT31;53428;47.686;16.584;2022-08-03T15:31:20;37.65;23.24
66576;SHT31;53428;47.686;16.584;2022-08-03T15:36:20;38.74;21.99
66576;SHT31;53428;47.686;16.584;2022-08-03T15:41:19;38.86;21.33
66576;SHT31;53428;47.686;16.584;2022-08-03T15:46:18;37.89;22.13
66576;SHT31;53428;47.686;16.584;2022-08-03T15:51:18;38.53;22.30
66576;SHT31;53428;47.686;16.584;2022-08-03T15:56:17;36.93;22.94
66576;SHT31;53428;47.686;16.584;2022-08-03T16:01:17;36.65;23.40
66576;SHT31;53428;47.686;16.584;2022-08-03T16:06:18;39.38;20.24
66576;SHT31;53428;47.686;16.584;2022-08-03T16:11:17;37.51;21.25
66576;SHT31;53428;47.686;16.584;2022-08-03T16:16:16;36.45;22.93
66576;SHT31;53428;47.686;16.584;2022-08-03T16:21:16;36.19;22.77
66576;SHT31;53428;47.686;16.584;2022-08-03T16:26:15;37.00;22.65
66576;SHT31;53428;47.686;16.584;2022-08-03T16:31:15;36.01;25.20
66576;SHT31;53428;47.686;16.584;2022-08-03T16:36:14;35.39;25.83
66576;SHT31;53428;47.686;16.584;2022-08-03T16:41:14;37.21;24.47
66576;SHT31;53428;47.686;16.584;2022-08-03T16:46:13;37.43;24.78
66576;SHT31;53428;47.686;16.584;2022-08-03T16:51:12;37.88;23.82
66576;SHT31;53428;47.686;16.584;2022-08-03T16:56:11;36.31;25.02
66576;SHT31;53428;47.686;16.584;2022-08-03T17:01:12;38.84;23.11
66576;SHT31;53428;47.686;16.584;2022-08-03T17:06:12;35.02;26.17
66576;SHT31;53428;47.686;16.584;2022-08-03T17:11:12;35.61;26.19
66576;SHT31;53428;47.686;16.584;2022-08-03T17:16:12;34.14;26.74
66576;SHT31;53428;47.686;16.584;2022-08-03T17:21:14;35.78;25.35
66576;SHT31;53428;47.686;16.584;2022-08-03T17:26:15;32.60;29.87
66576;SHT31;53428;47.686;16.584;2022-08-03T17:31:18;31.26;31.95
66576;SHT31;53428;47.686;16.584;2022-08-03T17:36:17;30.31;33.39
66576;SHT31;53428;47.686;16.584;2022-08-03T17:41:21;29.53;35.45
66576;SHT31;53428;47.686;16.584;2022-08-03T17:46:24;29.26;36.36
66576;SHT31;53428;47.686;16.584;2022-08-03T17:51:34;28.84;38.16
66576;SHT31;53428;47.686;16.584;2022-08-03T18:01:51;28.15;41.00
66576;SHT31;53428;47.686;16.584;2022-08-03T18:07:14;27.85;41.53
66576;SHT31;53428;47.686;16.584;2022-08-03T18:12:27;27.63;42.07
66576;SHT31;53428;47.686;16.584;2022-08-03T18:17:29;27.40;42.84
66576;SHT31;53428;47.686;16.584;2022-08-03T18:22:29;27.09;43.72
66576;SHT31;53428;47.686;16.584;2022-08-03T18:27:30;26.91;43.97
66576;SHT31;53428;47.686;16.584;2022-08-03T18:32:30;26.78;44.46
66576;SHT31;53428;47.686;16.584;2022-08-03T18:37:31;26.55;45.06
66576;SHT31;53428;47.686;16.584;2022-08-03T18:42:30;26.24;45.73
66576;SHT31;53428;47.686;16.584;2022-08-03T19:03:12;25.11;49.33
66576;SHT31;53428;47.686;16.584;2022-08-03T19:08:18;24.91;49.72
66576;SHT31;53428;47.686;16.584;2022-08-03T19:13:23;24.66;50.67
66576;SHT31;53428;47.686;16.584;2022-08-03T19:18:24;24.48;51.63
66576;SHT31;53428;47.686;16.584;2022-08-03T19:23:24;24.18;52.06
66576;SHT31;53428;47.686;16.584;2022-08-03T19:28:24;23.97;52.57
66576;SHT31;53428;47.686;16.584;2022-08-03T19:33:25;23.84;52.63
66576;SHT31;53428;47.686;16.584;2022-08-03T19:38:26;23.70;52.70
66576;SHT31;53428;47.686;16.584;2022-08-03T19:43:40;23.54;53.21
66576;SHT31;53428;47.686;16.584;2022-08-03T19:48:54;23.39;53.75
66576;SHT31;53428;47.686;16.584;2022-08-03T19:53:54;23.18;54.81
66576;SHT31;53428;47.686;16.584;2022-08-03T19:58:54;22.96;55.47
66576;SHT31;53428;47.686;16.584;2022-08-03T20:03:54;22.83;56.02
66576;SHT31;53428;47.686;16.584;2022-08-03T20:08:56;22.71;56.31
66576;SHT31;53428;47.686;16.584;2022-08-03T20:13:57;22.57;56.64
66576;SHT31;53428;47.686;16.584;2022-08-03T20:18:56;22.48;56.89
66576;SHT31;53428;47.686;16.584;2022-08-03T20:23:59;22.44;57.14
66576;SHT31;53428;47.686;16.584;2022-08-03T20:29:02;22.29;57.40
66576;SHT31;53428;47.686;16.584;2022-08-03T20:34:04;22.21;57.85
66576;SHT31;53428;47.686;16.584;2022-08-03T20:39:04;22.06;58.41
66576;SHT31;53428;47.686;16.584;2022-08-03T20:44:04;22.02;58.20
66576;SHT31;53428;47.686;16.584;2022-08-03T20:49:04;21.91;58.48
66576;SHT31;53428;47.686;16.584;2022-08-03T20:54:04;21.85;58.57
66576;SHT31;53428;47.686;16.584;2022-08-03T20:59:05;21.74;58.93
66576;SHT31;53428;47.686;16.584;2022-08-03T21:04:06;21.69;59.51
66576;SHT31;53428;47.686;16.584;2022-08-03T21:09:07;21.57;59.88
66576;SHT31;53428;47.686;16.584;2022-08-03T21:14:37;21.54;60.12
66576;SHT31;53428;47.686;16.584;2022-08-03T21:19:36;21.51;60.32
66576;SHT31;53428;47.686;16.584;2022-08-03T21:24:39;21.43;60.45
66576;SHT31;53428;47.686;16.584;2022-08-03T21:29:40;21.35;60.78
66576;SHT31;53428;47.686;16.584;2022-08-03T21:34:39;21.27;61.08
66576;SHT31;53428;47.686;16.584;2022-08-03T21:39:41;21.27;61.00
66576;SHT31;53428;47.686;16.584;2022-08-03T21:44:43;21.33;60.82
66576;SHT31;53428;47.686;16.584;2022-08-03T21:49:48;21.26;60.87
66576;SHT31;53428;47.686;16.584;2022-08-03T21:54:53;21.17;61.18
66576;SHT31;53428;47.686;16.584;2022-08-03T21:59:55;21.10;61.49
66576;SHT31;53428;47.686;16.584;2022-08-03T22:04:55;21.06;61.56
66576;SHT31;53428;47.686;16.584;2022-08-03T22:09:55;21.03;61.70
66576;SHT31;53428;47.686;16.584;2022-08-03T22:14:57;21.03;61.71
66576;SHT31;53428;47.686;16.584;2022-08-03T22:20:00;21.02;61.73
66576;SHT31;53428;47.686;16.584;2022-08-03T22:25:09;21.03;61.59
66576;SHT31;53428;47.686;16.584;2022-08-03T22:30:15;20.95;61.97
66576;SHT31;53428;47.686;16.584;2022-08-03T22:35:17;20.92;61.97
66576;SHT31;53428;47.686;16.584;2022-08-03T22:40:18;20.93;62.06
66576;SHT31;53428;47.686;16.584;2022-08-03T22:45:18;20.92;62.18
66576;SHT31;53428;47.686;16.584;2022-08-03T22:50:18;20.80;62.53
66576;SHT31;53428;47.686;16.584;2022-08-03T22:55:17;20.71;62.75
66576;SHT31;53428;47.686;16.584;2022-08-03T23:00:17;20.61;62.83
66576;SHT31;53428;47.686;16.584;2022-08-03T23:05:22;20.59;63.13
66576;SHT31;53428;47.686;16.584;2022-08-03T23:10:24;20.53;63.27
66576;SHT31;53428;47.686;16.584;2022-08-03T23:15:26;20.45;63.83
66576;SHT31;53428;47.686;16.584;2022-08-03T23:20:28;20.44;64.14
66576;SHT31;53428;47.686;16.584;2022-08-03T23:25:28;20.35;64.31
66576;SHT31;53428;47.686;16.584;2022-08-03T23:30:28;20.32;64.41
66576;SHT31;53428;47.686;16.584;2022-08-03T23:35:30;20.21;64.95
66576;SHT31;53428;47.686;16.584;2022-08-03T23:40:48;20.08;65.32
66576;SHT31;53428;47.686;16.584;2022-08-03T23:45:48;20.08;65.57
66576;SHT31;53428;47.686;16.584;2022-08-03T23:50:56;20.08;65.57
66576;SHT31;53428;47.686;16.584;2022-08-03T23:56:03;20.10;65.61
